sensor_id;sensor_type;location;lat;lon;timestamp;pressure;altitude;pressure_sealevel;temperature;humidity
54910;BME280;63189;51.240;9.964;2023-01-25T00:01:50;99752.91;;;-0.44;100.00
54910;BME280;63189;51.240;9.964;2023-01-25T00:04:17;99738.25;;;-0.48;100.00
54910;BME280;63189;51.240;9.964;2023-01-25T00:06:43;99740.75;;;-0.50;100.00
54910;BME280;63189;51.240;9.964;2023-01-25T00:09:09;99743.44;;;-0.47;100.00
54910;BME280;63189;51.240;9.964;2023-01-25T00:11:35;99742.38;;;-0.52;100.00
54910;BME280;63189;51.240;9.964;2023-01-25T00:14:02;99750.94;;;-0.51;100.00
54910;BME280;63189;51.240;9.964;2023-01-25T00:16:27;99751.22;;;-0.44;100.00
54910;BME280;63189;51.240;9.964;2023-01-25T00:18:53;99740.59;;;-0.53;100.00
54910;BME280;63189;51.240;9.964;2023-01-25T00:21:21;99750.31;;;-0.46;100.00
54910;BME280;63189;51.240;9.964;2023-01-25T00:23:47;99756.34;;;-0.44;100.00
54910;BME280;63189;51.240;9.964;2023-01-25T00:26:13;99754.81;;;-0.40;100.00
54910;BME280;63189;51.240;9.964;2023-01-25T00:28:38;99758.97;;;-0.42;100.00
54910;BME280;63189;51.240;9.964;2023-01-25T00:31:05;99747.63;;;-0.49;100.00
54910;BME280;63189;51.240;9.964;2023-01-25T00:36:27;99742.38;;;-0.52;100.00
54910;BME280;63189;51.240;9.964;2023-01-25T00:38:53;99750.19;;;-0.49;100.00
54910;BME280;63189;51.240;9.964;2023-01-25T00:41:19;99739.00;;;-0.51;100.00
54910;BME280;63189;51.240;9.964;2023-01-25T00:43:44;99735.63;;;-0.50;100.00
54910;BME280;63189;51.240;9.964;2023-01-25T00:46:14;99740.97;;;-0.44;100.00
54910;BME280;63189;51.240;9.964;2023-01-25T00:48:39;99741.03;;;-0.42;100.00
54910;BME280;63189;51.240;9.964;2023-01-25T00:51:05;99738.38;;;-0.45;100.00
54910;BME280;63189;51.240;9.964;2023-01-25T00:53:30;99725.38;;;-0.50;100.00
54910;BME280;63189;51.240;9.964;2023-01-25T00:55:55;99736.69;;;-0.45;100.00
54910;BME280;63189;51.240;9.964;2023-01-25T00:58:20;99733.19;;;-0.47;100.00
54910;BME280;63189;51.240;9.964;2023-01-25T01:00:46;99722.59;;;-0.54;100.00
54910;BME280;63189;51.240;9.964;2023-01-25T01:03:11;99733.13;;;-0.48;100.00
54910;BME280;63189;51.240;9.964;2023-01-25T01:05:36;99724.50;;;-0.50;100.00
54910;BME280;63189;51.240;9.964;2023-01-25T01:08:02;99728.06;;;-0.47;100.00
54910;BME280;63189;51.240;9.964;2023-01-25T01:10:28;99727.19;;;-0.47;100.00
54910;BME280;63189;51.240;9.964;2023-01-25T01:12:53;99720.38;;;-0.47;100.00
54910;BME280;63189;51.240;9.964;2023-01-25T01:15:19;99725.31;;;-0.51;100.00
54910;BME280;63189;51.240;9.964;2023-01-25T01:17:44;99718.50;;;-0.51;100.00
54910;BME280;63189;51.240;9.964;2023-01-25T01:20:10;99712.31;;;-0.56;100.00
54910;BME280;63189;51.240;9.964;2023-01-25T01:22:35;99728.75;;;-0.51;100.00
54910;BME280;63189;51.240;9.964;2023-01-25T01:25:01;99722.81;;;-0.50;100.00
54910;BME280;63189;51.240;9.964;2023-01-25T01:27:26;99722.88;;;-0.48;100.00
54910;BME280;63189;51.240;9.964;2023-01-25T01:29:51;99717.53;;;-0.53;100.00
54910;BME280;63189;51.240;9.964;2023-01-25T01:32:17;99725.22;;;-0.53;100.00
54910;BME280;63189;51.240;9.964;2023-01-25T01:34:42;99712.66;;;-0.68;100.00
54910;BME280;63189;51.240;9.964;2023-01-25T01:37:08;99721.34;;;-0.64;100.00
54910;BME280;63189;51.240;9.964;2023-01-25T01:39:34;99700.47;;;-0.73;100.00
54910;BME280;63189;51.240;9.964;2023-01-25T01:41:59;99716.38;;;-0.61;100.00
54910;BME280;63189;51.240;9.964;2023-01-25T01:44:47;99718.06;;;-0.62;100.00
54910;BME280;63189;51.240;9.964;2023-01-25T01:47:17;99717.84;;;-0.66;100.00
54910;BME280;63189;51.240;9.964;2023-01-25T01:49:50;99719.75;;;-0.62;100.00
54910;BME280;63189;51.240;9.964;2023-01-25T01:52:19;99717.59;;;-0.72;100.00
54910;BME280;63189;51.240;9.964;2023-01-25T01:55:05;99717.59;;;-0.72;100.00
54910;BME280;63189;51.240;9.964;2023-01-25T01:57:49;99708.84;;;-0.77;100.00
54910;BME280;63189;51.240;9.964;2023-01-25T02:02:50;99709.72;;;-0.77;100.00
54910;BME280;63189;51.240;9.964;2023-01-25T02:05:26;99711.22;;;-0.82;100.00
54910;BME280;63189;51.240;9.964;2023-01-25T02:07:54;99720.00;;;-0.75;100.00
54910;BME280;63189;51.240;9.964;2023-01-25T02:10:23;99714.16;;;-0.73;100.00
54910;BME280;63189;51.240;9.964;2023-01-25T02:12:51;99706.34;;;-0.76;100.00
54910;BME280;63189;51.240;9.964;2023-01-25T02:15:18;99702.31;;;-0.71;100.00
54910;BME280;63189;51.240;9.964;2023-01-25T02:17:43;99710.84;;;-0.70;100.00
54910;BME280;63189;51.240;9.964;2023-01-25T02:23:04;99697.25;;;-0.69;100.00
54910;BME280;63189;51.240;9.964;2023-01-25T02:25:31;99692.88;;;-0.72;100.00
54910;BME280;63189;51.240;9.964;2023-01-25T02:28:01;99698.81;;;-0.73;100.00
54910;BME280;63189;51.240;9.964;2023-01-25T02:30:28;99699.59;;;-0.74;100.00
54910;BME280;63189;51.240;9.964;2023-01-25T02:32:55;99707.09;;;-0.78;100.00
54910;BME280;63189;51.240;9.964;2023-01-25T02:35:35;99694.97;;;-0.82;100.00
54910;BME280;63189;51.240;9.964;2023-01-25T02:38:01;99699.13;;;-0.84;100.00
54910;BME280;63189;51.240;9.964;2023-01-25T02:40:28;99694.69;;;-0.89;100.00
54910;BME280;63189;51.240;9.964;2023-01-25T02:42:55;99694.88;;;-0.84;100.00
54910;BME280;63189;51.240;9.964;2023-01-25T02:45:24;99681.09;;;-0.88;100.00
54910;BME280;63189;51.240;9.964;2023-01-25T02:47:54;99688.06;;;-0.83;100.00
54910;BME280;63189;51.240;9.964;2023-01-25T02:50:19;99678.47;;;-0.89;100.00
54910;BME280;63189;51.240;9.964;2023-01-25T02:52:44;99669.97;;;-0.88;100.00
54910;BME280;63189;51.240;9.964;2023-01-25T02:55:10;99677.31;;;-0.96;100.00
54910;BME280;63189;51.240;9.964;2023-01-25T02:57:35;99663.47;;;-1.01;100.00
54910;BME280;63189;51.240;9.964;2023-01-25T03:00:01;99666.25;;;-0.95;100.00
54910;BME280;63189;51.240;9.964;2023-01-25T03:02:27;99661.25;;;-0.93;100.00
54910;BME280;63189;51.240;9.964;2023-01-25T03:04:52;99661.72;;;-1.02;100.00
54910;BME280;63189;51.240;9.964;2023-01-25T03:07:17;99652.81;;;-1.10;100.00
54910;BME280;63189;51.240;9.964;2023-01-25T03:09:43;99654.69;;;-1.06;100.00
54910;BME280;63189;51.240;9.964;2023-01-25T03:12:08;99653.88;;;-1.05;100.00
54910;BME280;63189;51.240;9.964;2023-01-25T03:14:33;99637.75;;;-1.04;100.00
54910;BME280;63189;51.240;9.964;2023-01-25T03:16:59;99645.47;;;-1.02;100.00
54910;BME280;63189;51.240;9.964;2023-01-25T03:19:24;99642.06;;;-1.03;100.00
54910;BME280;63189;51.240;9.964;2023-01-25T03:21:49;99640.97;;;-1.08;100.00
54910;BME280;63189;51.240;9.964;2023-01-25T03:24:15;99630.72;;;-1.08;100.00
54910;BME280;63189;51.240;9.964;2023-01-25T03:26:41;99632.63;;;-1.04;100.00
54910;BME280;63189;51.240;9.964;2023-01-25T03:29:25;99624.63;;;-1.11;100.00
54910;BME280;63189;51.240;9.964;2023-01-25T03:31:51;99627.13;;;-1.13;100.00
54910;BME280;63189;51.240;9.964;2023-01-25T03:34:16;99619.28;;;-1.16;100.00
54910;BME280;63189;51.240;9.964;2023-01-25T03:36:41;99622.00;;;-1.13;100.00
54910;BME280;63189;51.240;9.964;2023-01-25T03:39:07;99623.88;;;-1.09;100.00
54910;BME280;63189;51.240;9.964;2023-01-25T03:41:32;99615.19;;;-1.12;100.00
54910;BME280;63189;51.240;9.964;2023-01-25T03:43:57;99612.56;;;-1.14;100.00
54910;BME280;63189;51.240;9.964;2023-01-25T03:46:23;99615.38;;;-1.08;100.00
54910;BME280;63189;51.240;9.964;2023-01-25T03:48:48;99605.19;;;-1.06;100.00
54910;BME280;63189;51.240;9.964;2023-01-25T03:51:14;99603.38;;;-1.09;100.00
54910;BME280;63189;51.240;9.964;2023-01-25T03:53:39;99609.38;;;-1.08;100.00
54910;BME280;63189;51.240;9.964;2023-01-25T03:56:07;99609.25;;;-1.11;100.00
54910;BME280;63189;51.240;9.964;2023-01-25T03:58:34;99604.09;;;-1.13;100.00
54910;BME280;63189;51.240;9.964;2023-01-25T04:01:01;99611.88;;;-1.10;100.00
54910;BME280;63189;51.240;9.964;2023-01-25T04:03:27;99602.56;;;-1.08;100.00
54910;BME280;63189;51.240;9.964;2023-01-25T04:05:54;99604.31;;;-1.07;100.00
54910;BME280;63189;51.240;9.964;2023-01-25T04:08:21;99600.88;;;-1.07;100.00
54910;BME280;63189;51.240;9.964;2023-01-25T04:10:55;99595.75;;;-1.07;100.00
54910;BME280;63189;51.240;9.964;2023-01-25T04:13:22;99601.09;;;-1.03;100.00
54910;BME280;63189;51.240;9.964;2023-01-25T04:15:48;99594.78;;;-1.11;100.00
54910;BME280;63189;51.240;9.964;2023-01-25T04:18:14;99591.06;;;-1.18;100.00
54910;BME280;63189;51.240;9.964;2023-01-25T04:20:40;99594.97;;;-1.26;100.00
54910;BME280;63189;51.240;9.964;2023-01-25T04:23:06;99592.63;;;-1.21;100.00
54910;BME280;63189;51.240;9.964;2023-01-25T04:25:32;99590.13;;;-1.20;100.00
54910;BME280;63189;51.240;9.964;2023-01-25T04:27:57;99588.41;;;-1.21;100.00
54910;BME280;63189;51.240;9.964;2023-01-25T04:30:23;99587.47;;;-1.23;100.00
54910;BME280;63189;51.240;9.964;2023-01-25T04:32:48;99584.22;;;-1.19;100.00
54910;BME280;63189;51.240;9.964;2023-01-25T04:35:13;99592.69;;;-1.20;100.00
54910;BME280;63189;51.240;9.964;2023-01-25T04:37:39;99584.16;;;-1.20;100.00
54910;BME280;63189;51.240;9.964;2023-01-25T04:40:05;99581.66;;;-1.19;100.00
54910;BME280;63189;51.240;9.964;2023-01-25T04:42:30;99588.41;;;-1.21;100.00
54910;BME280;63189;51.240;9.964;2023-01-25T04:44:56;99577.94;;;-1.25;100.00
54910;BME280;63189;51.240;9.964;2023-01-25T04:47:21;99582.41;;;-1.21;100.00
54910;BME280;63189;51.240;9.964;2023-01-25T04:49:46;99584.22;;;-1.19;100.00
54910;BME280;63189;51.240;9.964;2023-01-25T04:52:12;99571.09;;;-1.26;100.00
54910;BME280;63189;51.240;9.964;2023-01-25T04:54:37;99561.81;;;-1.24;100.00
54910;BME280;63189;51.240;9.964;2023-01-25T04:57:02;99569.84;;;-1.15;100.00
54910;BME280;63189;51.240;9.964;2023-01-25T04:59:28;99570.81;;;-1.13;100.00
54910;BME280;63189;51.240;9.964;2023-01-25T05:01:55;99578.44;;;-1.14;100.00
54910;BME280;63189;51.240;9.964;2023-01-25T05:04:21;99573.38;;;-1.13;100.00
54910;BME280;63189;51.240;9.964;2023-01-25T05:06:46;99560.31;;;-1.19;100.00
54910;BME280;63189;51.240;9.964;2023-01-25T05:09:12;99564.72;;;-1.15;100.00
54910;BME280;63189;51.240;9.964;2023-01-25T05:11:38;99562.25;;;-1.13;100.00
54910;BME280;63189;51.240;9.964;2023-01-25T05:14:03;99552.56;;;-1.21;100.00
54910;BME280;63189;51.240;9.964;2023-01-25T05:16:28;99556.75;;;-1.23;100.00
54910;BME280;63189;51.240;9.964;2023-01-25T05:18:54;99561.13;;;-1.20;100.00
54910;BME280;63189;51.240;9.964;2023-01-25T05:21:20;99556.53;;;-1.27;100.00
54910;BME280;63189;51.240;9.964;2023-01-25T05:24:04;99547.94;;;-1.29;100.00
54910;BME280;63189;51.240;9.964;2023-01-25T05:26:29;99538.19;;;-1.38;100.00
54910;BME280;63189;51.240;9.964;2023-01-25T05:29:13;99551.19;;;-1.33;100.00
54910;BME280;63189;51.240;9.964;2023-01-25T05:31:38;99550.38;;;-1.32;100.00
54910;BME280;63189;51.240;9.964;2023-01-25T05:34:04;99547.13;;;-1.28;100.00
54910;BME280;63189;51.240;9.964;2023-01-25T05:36:29;99556.53;;;-1.27;100.00
54910;BME280;63189;51.240;9.964;2023-01-25T05:38:55;99548.22;;;-1.23;100.00
54910;BME280;63189;51.240;9.964;2023-01-25T05:41:20;99542.94;;;-1.26;100.00
54910;BME280;63189;51.240;9.964;2023-01-25T05:43:48;99554.91;;;-1.25;100.00
54910;BME280;63189;51.240;9.964;2023-01-25T05:46:14;99542.88;;;-1.28;100.00
54910;BME280;63189;51.240;9.964;2023-01-25T05:48:39;99564.44;;;-1.23;100.00
54910;BME280;63189;51.240;9.964;2023-01-25T05:51:05;99560.78;;;-1.28;100.00
54910;BME280;63189;51.240;9.964;2023-01-25T05:53:30;99555.94;;;-1.22;100.00
54910;BME280;63189;51.240;9.964;2023-01-25T05:55:56;99550.56;;;-1.28;100.00
54910;BME280;63189;51.240;9.964;2023-01-25T05:58:21;99544.44;;;-1.31;100.00
54910;BME280;63189;51.240;9.964;2023-01-25T06:00:46;99555.06;;;-1.22;100.00
54910;BME280;63189;51.240;9.964;2023-01-25T06:03:12;99557.56;;;-1.24;100.00
54910;BME280;63189;51.240;9.964;2023-01-25T06:05:37;99563.56;;;-1.23;100.00
54910;BME280;63189;51.240;9.964;2023-01-25T06:08:02;99552.28;;;-1.27;100.00
54910;BME280;63189;51.240;9.964;2023-01-25T06:10:27;99549.50;;;-1.33;100.00
54910;BME280;63189;51.240;9.964;2023-01-25T06:12:57;99548.69;;;-1.32;100.00
54910;BME280;63189;51.240;9.964;2023-01-25T06:15:23;99539.31;;;-1.31;100.00
54910;BME280;63189;51.240;9.964;2023-01-25T06:17:48;99541.78;;;-1.34;100.00
54910;BME280;63189;51.240;9.964;2023-01-25T06:20:13;99553.06;;;-1.29;100.00
54910;BME280;63189;51.240;9.964;2023-01-25T06:22:39;99543.44;;;-1.35;100.00
54910;BME280;63189;51.240;9.964;2023-01-25T06:25:04;99544.44;;;-1.31;100.00
54910;BME280;63189;51.240;9.964;2023-01-25T06:27:30;99539.06;;;-1.37;100.00
54910;BME280;63189;51.240;9.964;2023-01-25T06:29:55;99539.63;;;-1.44;100.00
54910;BME280;63189;51.240;9.964;2023-01-25T06:32:20;99553.34;;;-1.42;100.00
54910;BME280;63189;51.240;9.964;2023-01-25T06:34:46;99550.91;;;-1.39;100.00
54910;BME280;63189;51.240;9.964;2023-01-25T06:37:11;99550.91;;;-1.39;100.00
54910;BME280;63189;51.240;9.964;2023-01-25T06:39:36;99538.94;;;-1.40;100.00
54910;BME280;63189;51.240;9.964;2023-01-25T06:42:02;99542.59;;;-1.35;100.00
54910;BME280;63189;51.240;9.964;2023-01-25T06:44:27;99534.75;;;-1.38;100.00
54910;BME280;63189;51.240;9.964;2023-01-25T06:46:53;99545.13;;;-1.35;100.00
54910;BME280;63189;51.240;9.964;2023-01-25T06:49:19;99550.44;;;-1.31;100.00
54910;BME280;63189;51.240;9.964;2023-01-25T06:51:44;99546.00;;;-1.35;100.00
54910;BME280;63189;51.240;9.964;2023-01-25T06:54:10;99538.94;;;-1.40;100.00
54910;BME280;63189;51.240;9.964;2023-01-25T06:56:35;99537.19;;;-1.41;100.00
54910;BME280;63189;51.240;9.964;2023-01-25T06:59:00;99543.06;;;-1.44;100.00
54910;BME280;63189;51.240;9.964;2023-01-25T07:01:26;99528.44;;;-1.47;100.00
54910;BME280;63189;51.240;9.964;2023-01-25T07:03:53;99528.31;;;-1.50;100.00
54910;BME280;63189;51.240;9.964;2023-01-25T07:06:19;99537.78;;;-1.47;100.00
54910;BME280;63189;51.240;9.964;2023-01-25T07:08:45;99539.09;;;-1.57;100.00
54910;BME280;63189;51.240;9.964;2023-01-25T07:11:12;99534.94;;;-1.55;100.00
54910;BME280;63189;51.240;9.964;2023-01-25T07:13:40;99530.41;;;-1.60;100.00
54910;BME280;63189;51.240;9.964;2023-01-25T07:16:07;99539.59;;;-1.65;100.00
54910;BME280;63189;51.240;9.964;2023-01-25T07:18:35;99531.16;;;-1.63;100.00
54910;BME280;63189;51.240;9.964;2023-01-25T07:21:15;99532.78;;;-1.65;100.00
54910;BME280;63189;51.240;9.964;2023-01-25T07:23:41;99532.03;;;-1.62;100.00
54910;BME280;63189;51.240;9.964;2023-01-25T07:26:14;99524.09;;;-1.68;100.00
54910;BME280;63189;51.240;9.964;2023-01-25T07:28:40;99523.28;;;-1.67;100.00
54910;BME280;63189;51.240;9.964;2023-01-25T07:31:06;99520.66;;;-1.69;100.00
54910;BME280;63189;51.240;9.964;2023-01-25T07:33:32;99513.63;;;-1.75;100.00
54910;BME280;63189;51.240;9.964;2023-01-25T07:36:02;99513.41;;;-1.79;100.00
54910;BME280;63189;51.240;9.964;2023-01-25T07:38:27;99517.91;;;-1.73;100.00
54910;BME280;63189;51.240;9.964;2023-01-25T07:40:53;99511.88;;;-1.76;100.00
54910;BME280;63189;51.240;9.964;2023-01-25T07:43:18;99512.75;;;-1.75;100.00
54910;BME280;63189;51.240;9.964;2023-01-25T07:45:44;99516.25;;;-1.73;100.00
54910;BME280;63189;51.240;9.964;2023-01-25T07:48:13;99501.50;;;-1.79;100.00
54910;BME280;63189;51.240;9.964;2023-01-25T07:50:38;99500.78;;;-1.76;100.00
54910;BME280;63189;51.240;9.964;2023-01-25T07:53:08;99515.50;;;-1.70;100.00
54910;BME280;63189;51.240;9.964;2023-01-25T07:55:33;99510.44;;;-1.69;100.00
54910;BME280;63189;51.240;9.964;2023-01-25T07:57:59;99499.22;;;-1.72;100.00
54910;BME280;63189;51.240;9.964;2023-01-25T08:00:25;99502.81;;;-1.67;100.00
54910;BME280;63189;51.240;9.964;2023-01-25T08:02:51;99502.91;;;-1.66;100.00
54910;BME280;63189;51.240;9.964;2023-01-25T08:05:17;99492.28;;;-1.75;100.00
54910;BME280;63189;51.240;9.964;2023-01-25T08:07:43;99502.59;;;-1.73;100.00
54910;BME280;63189;51.240;9.964;2023-01-25T08:10:09;99484.09;;;-1.87;100.00
54910;BME280;63189;51.240;9.964;2023-01-25T08:12:34;99485.09;;;-1.84;100.00
54910;BME280;63189;51.240;9.964;2023-01-25T08:15:00;99503.75;;;-1.86;100.00
54910;BME280;63189;51.240;9.964;2023-01-25T08:17:25;99504.81;;;-1.81;100.00
54910;BME280;63189;51.240;9.964;2023-01-25T08:19:56;99498.81;;;-1.82;100.00
54910;BME280;63189;51.240;9.964;2023-01-25T08:22:22;99502.31;;;-1.80;100.00
54910;BME280;63189;51.240;9.964;2023-01-25T08:24:48;99494.56;;;-1.81;100.00
54910;BME280;63189;51.240;9.964;2023-01-25T08:27:14;99489.59;;;-1.78;100.00
54910;BME280;63189;51.240;9.964;2023-01-25T08:29:39;99495.56;;;-1.78;100.00
54910;BME280;63189;51.240;9.964;2023-01-25T08:32:05;99468.63;;;-1.90;100.00
54910;BME280;63189;51.240;9.964;2023-01-25T08:34:31;99487.84;;;-1.79;100.00
54910;BME280;63189;51.240;9.964;2023-01-25T08:36:57;99486.09;;;-1.80;100.00
54910;BME280;63189;51.240;9.964;2023-01-25T08:39:22;99489.34;;;-1.84;100.00
54910;BME280;63189;51.240;9.964;2023-01-25T08:41:48;99496.19;;;-1.83;100.00
54910;BME280;63189;51.240;9.964;2023-01-25T08:44:13;99499.81;;;-1.78;100.00
54910;BME280;63189;51.240;9.964;2023-01-25T08:46:38;99490.09;;;-1.87;100.00
54910;BME280;63189;51.240;9.964;2023-01-25T08:49:04;99496.31;;;-1.80;100.00
54910;BME280;63189;51.240;9.964;2023-01-25T08:51:31;99503.13;;;-1.81;100.00
54910;BME280;63189;51.240;9.964;2023-01-25T08:54:00;99497.06;;;-1.83;100.00
54910;BME280;63189;51.240;9.964;2023-01-25T08:56:26;99483.19;;;-1.88;100.00
54910;BME280;63189;51.240;9.964;2023-01-25T08:58:51;99491.22;;;-1.80;100.00
54910;BME280;63189;51.240;9.964;2023-01-25T09:01:18;99493.53;;;-1.86;100.00
54910;BME280;63189;51.240;9.964;2023-01-25T09:03:45;99493.56;;;-1.85;100.00
54910;BME280;63189;51.240;9.964;2023-01-25T09:06:11;99495.50;;;-1.79;100.00
54910;BME280;63189;51.240;9.964;2023-01-25T09:08:37;99482.72;;;-1.79;100.00
54910;BME280;63189;51.240;9.964;2023-01-25T09:11:10;99486.38;;;-1.74;100.00
54910;BME280;63189;51.240;9.964;2023-01-25T09:13:36;99485.50;;;-1.75;100.00
54910;BME280;63189;51.240;9.964;2023-01-25T09:16:06;99472.38;;;-1.82;100.00
54910;BME280;63189;51.240;9.964;2023-01-25T09:18:35;99471.84;;;-1.75;100.00
54910;BME280;63189;51.240;9.964;2023-01-25T09:21:12;99482.25;;;-1.70;100.00
54910;BME280;63189;51.240;9.964;2023-01-25T09:23:38;99480.00;;;-1.84;100.00
54910;BME280;63189;51.240;9.964;2023-01-25T09:26:04;99469.81;;;-1.82;100.00
54910;BME280;63189;51.240;9.964;2023-01-25T09:28:30;99465.53;;;-1.83;100.00
54910;BME280;63189;51.240;9.964;2023-01-25T09:31:00;99473.31;;;-1.80;100.00
54910;BME280;63189;51.240;9.964;2023-01-25T09:33:31;99480.31;;;-1.76;100.00
54910;BME280;63189;51.240;9.964;2023-01-25T09:35:57;99456.16;;;-1.83;100.00
54910;BME280;63189;51.240;9.964;2023-01-25T09:38:23;99450.31;;;-1.80;100.00
54910;BME280;63189;51.240;9.964;2023-01-25T09:46:09;99463.41;;;-1.72;100.00
54910;BME280;63189;51.240;9.964;2023-01-25T09:48:46;99459.00;;;-1.77;100.00
54910;BME280;63189;51.240;9.964;2023-01-25T09:51:51;99459.78;;;-1.78;100.00
54910;BME280;63189;51.240;9.964;2023-01-25T09:54:15;99449.50;;;-1.79;100.00
54910;BME280;63189;51.240;9.964;2023-01-25T09:56:42;99458.03;;;-1.79;100.00
54910;BME280;63189;51.240;9.964;2023-01-25T09:59:13;99459.06;;;-1.75;100.00
54910;BME280;63189;51.240;9.964;2023-01-25T10:04:33;99453.94;;;-1.75;100.00
54910;BME280;63189;51.240;9.964;2023-01-25T10:07:05;99452.31;;;-1.73;100.00
54910;BME280;63189;51.240;9.964;2023-01-25T10:10:02;99455.81;;;-1.71;100.00
54910;BME280;63189;51.240;9.964;2023-01-25T10:12:34;99449.88;;;-1.70;100.00
54910;BME280;63189;51.240;9.964;2023-01-25T10:15:00;99447.31;;;-1.70;100.00
54910;BME280;63189;51.240;9.964;2023-01-25T10:17:34;99449.06;;;-1.69;100.00
54910;BME280;63189;51.240;9.964;2023-01-25T10:22:45;99442.22;;;-1.70;100.00
54910;BME280;63189;51.240;9.964;2023-01-25T10:25:33;99436.34;;;-1.67;100.00
54910;BME280;63189;51.240;9.964;2023-01-25T10:28:03;99429.75;;;-1.62;100.00
54910;BME280;63189;51.240;9.964;2023-01-25T10:30:40;99433.34;;;-1.57;100.00
54910;BME280;63189;51.240;9.964;2023-01-25T10:33:17;99420.41;;;-1.62;100.00
54910;BME280;63189;51.240;9.964;2023-01-25T10:35:45;99409.56;;;-1.56;100.00
54910;BME280;63189;51.240;9.964;2023-01-25T10:38:19;99403.31;;;-1.63;100.00
54910;BME280;63189;51.240;9.964;2023-01-25T10:41:36;99404.19;;;-1.62;100.00
54910;BME280;63189;51.240;9.964;2023-01-25T10:43:37;99394.75;;;-1.63;100.00
54910;BME280;63189;51.240;9.964;2023-01-25T10:46:02;99396.56;;;-1.61;100.00
54910;BME280;63189;51.240;9.964;2023-01-25T10:48:32;99392.31;;;-1.60;100.00
54910;BME280;63189;51.240;9.964;2023-01-25T10:50:57;99381.16;;;-1.62;100.00
54910;BME280;63189;51.240;9.964;2023-01-25T10:53:24;99388.56;;;-1.68;100.00
54910;BME280;63189;51.240;9.964;2023-01-25T10:58:41;99381.66;;;-1.71;100.00
54910;BME280;63189;51.240;9.964;2023-01-25T11:01:11;99374.84;;;-1.70;100.00
54910;BME280;63189;51.240;9.964;2023-01-25T11:03:39;99371.44;;;-1.71;100.00
54910;BME280;63189;51.240;9.964;2023-01-25T11:06:06;99364.53;;;-1.73;100.00
54910;BME280;63189;51.240;9.964;2023-01-25T11:08:40;99355.28;;;-1.70;100.00
54910;BME280;63189;51.240;9.964;2023-01-25T11:13:53;99347.44;;;-1.75;100.00
54910;BME280;63189;51.240;9.964;2023-01-25T11:16:36;99344.00;;;-1.75;100.00
54910;BME280;63189;51.240;9.964;2023-01-25T11:19:22;99332.66;;;-1.82;100.00
54910;BME280;63189;51.240;9.964;2023-01-25T11:21:53;99339.63;;;-1.78;100.00
54910;BME280;63189;51.240;9.964;2023-01-25T11:24:18;99331.91;;;-1.79;100.00
54910;BME280;63189;51.240;9.964;2023-01-25T11:26:44;99323.63;;;-1.73;100.00
54910;BME280;63189;51.240;9.964;2023-01-25T11:29:11;99329.59;;;-1.73;100.00
54910;BME280;63189;51.240;9.964;2023-01-25T11:31:37;99313.19;;;-1.78;100.00
54910;BME280;63189;51.240;9.964;2023-01-25T11:34:10;99309.91;;;-1.76;100.00
54910;BME280;63189;51.240;9.964;2023-01-25T11:40:12;99296.88;;;-1.82;100.00
54910;BME280;63189;51.240;9.964;2023-01-25T11:45:36;99284.28;;;-1.77;100.00
54910;BME280;63189;51.240;9.964;2023-01-25T11:51:05;99276.66;;;-1.76;100.00
54910;BME280;63189;51.240;9.964;2023-01-25T11:56:57;99251.56;;;-1.86;100.00
54910;BME280;63189;51.240;9.964;2023-01-25T12:11:14;99244.09;;;-1.80;100.00
54910;BME280;63189;51.240;9.964;2023-01-25T12:16:31;99234.81;;;-1.78;100.00
54910;BME280;63189;51.240;9.964;2023-01-25T12:21:49;99213.63;;;-1.75;100.00
54910;BME280;63189;51.240;9.964;2023-01-25T12:27:12;99202.78;;;-1.68;100.00
54910;BME280;63189;51.240;9.964;2023-01-25T12:29:42;99194.16;;;-1.71;100.00
54910;BME280;63189;51.240;9.964;2023-01-25T12:34:50;99180.34;;;-1.77;100.00
54910;BME280;63189;51.240;9.964;2023-01-25T12:37:27;99181.06;;;-1.79;100.00
54910;BME280;63189;51.240;9.964;2023-01-25T12:40:02;99169.28;;;-1.76;100.00
54910;BME280;63189;51.240;9.964;2023-01-25T12:42:54;99168.53;;;-1.73;100.00
54910;BME280;63189;51.240;9.964;2023-01-25T12:45:24;99170.38;;;-1.69;100.00
54910;BME280;63189;51.240;9.964;2023-01-25T12:48:01;99154.13;;;-1.71;100.00
54910;BME280;63189;51.240;9.964;2023-01-25T12:50:33;99164.44;;;-1.68;100.00
54910;BME280;63189;51.240;9.964;2023-01-25T12:55:32;99149.81;;;-1.72;100.00
54910;BME280;63189;51.240;9.964;2023-01-25T12:58:05;99148.22;;;-1.68;100.00
54910;BME280;63189;51.240;9.964;2023-01-25T13:01:15;99140.50;;;-1.70;100.00
54910;BME280;63189;51.240;9.964;2023-01-25T13:03:38;99133.75;;;-1.68;100.00
54910;BME280;63189;51.240;9.964;2023-01-25T13:06:43;99126.19;;;-1.66;100.00
54910;BME280;63189;51.240;9.964;2023-01-25T13:11:44;99117.69;;;-1.65;100.00
54910;BME280;63189;51.240;9.964;2023-01-25T13:16:45;99115.03;;;-1.67;100.00
54910;BME280;63189;51.240;9.964;2023-01-25T13:21:56;99103.31;;;-1.62;100.00
54910;BME280;63189;51.240;9.964;2023-01-25T13:24:29;99105.06;;;-1.61;100.00
54910;BME280;63189;51.240;9.964;2023-01-25T13:37:26;99087.00;;;-1.65;100.00
54910;BME280;63189;51.240;9.964;2023-01-25T13:45:17;99090.25;;;-1.69;100.00
54910;BME280;63189;51.240;9.964;2023-01-25T13:48:00;99093.56;;;-1.72;100.00
54910;BME280;63189;51.240;9.964;2023-01-25T13:50:28;99087.53;;;-1.74;100.00
54910;BME280;63189;51.240;9.964;2023-01-25T13:55:43;99076.53;;;-1.71;100.00
54910;BME280;63189;51.240;9.964;2023-01-25T14:03:13;99052.66;;;-1.72;100.00
54910;BME280;63189;51.240;9.964;2023-01-25T14:05:38;99059.47;;;-1.72;100.00
54910;BME280;63189;51.240;9.964;2023-01-25T14:08:04;99043.16;;;-1.76;100.00
54910;BME280;63189;51.240;9.964;2023-01-25T14:10:30;99044.19;;;-1.71;100.00
54910;BME280;63189;51.240;9.964;2023-01-25T14:12:59;99030.38;;;-1.76;100.00
54910;BME280;63189;51.240;9.964;2023-01-25T14:15:31;99040.03;;;-1.67;100.00
54910;BME280;63189;51.240;9.964;2023-01-25T14:20:38;99022.72;;;-1.76;100.00
54910;BME280;63189;51.240;9.964;2023-01-25T14:23:17;99020.25;;;-1.73;100.00
54910;BME280;63189;51.240;9.964;2023-01-25T14:25:44;99024.53;;;-1.72;100.00
54910;BME280;63189;51.240;9.964;2023-01-25T14:28:11;99020.25;;;-1.73;100.00
54910;BME280;63189;51.240;9.964;2023-01-25T14:30:39;99015.88;;;-1.77;100.00
54910;BME280;63189;51.240;9.964;2023-01-25T14:33:17;99012.59;;;-1.73;100.00